Time;durP1;ratioP1;P1;durP2;ratioP2;P2;SDS_P1;SDS_P2;PMS_P1;PMS_P2;Temp;Humidity;BMP_temperature;BMP_pressure;BME280_temperature;BME280_humidity;BME280_pressure;Samples;Min_cycle;Max_cycle;Signal;HPM_P1;HPM_P2
2022/06/04 00:00:26;;;;;;;4.43;4.03;;;16.60;62.00;;;;;;5053939;28;20029;-74
2022/06/04 00:02:51;;;;;;;4.50;4.00;;;16.60;61.40;;;;;;5054165;28;20035;-74
2022/06/04 00:05:21;;;;;;;4.78;4.13;;;16.50;61.70;;;;;;5053587;28;20053;-74
2022/06/04 00:07:47;;;;;;;4.03;3.63;;;16.50;62.00;;;;;;5052834;28;20025;-72
2022/06/04 00:15:53;;;;;;;4.90;3.90;;;16.40;62.30;;;;;;5054129;28;20032;-73
2022/06/04 00:18:20;;;;;;;5.25;4.30;;;16.30;62.00;;;;;;5063085;28;20028;-74
2022/06/04 00:20:46;;;;;;;5.40;4.50;;;16.30;62.10;;;;;;5073635;28;20078;-72
2022/06/04 00:23:12;;;;;;;6.03;5.38;;;16.30;62.10;;;;;;5073558;28;20385;-72
2022/06/04 00:25:41;;;;;;;5.10;4.45;;;16.30;62.50;;;;;;5073636;28;20021;-72
2022/06/04 00:28:09;;;;;;;4.32;3.92;;;16.30;62.60;;;;;;5073721;28;20012;-72
2022/06/04 00:30:35;;;;;;;5.28;4.32;;;16.30;63.10;;;;;;5073425;28;20031;-74
2022/06/04 00:33:01;;;;;;;5.43;4.70;;;16.20;62.90;;;;;;5073403;28;20074;-75
2022/06/04 00:35:27;;;;;;;4.18;3.88;;;16.30;62.90;;;;;;5073589;28;20013;-75
2022/06/04 00:37:53;;;;;;;4.88;3.90;;;16.20;63.10;;;;;;5073356;28;20024;-74
2022/06/04 00:40:30;;;;;;;4.97;4.50;;;16.20;63.50;;;;;;5073409;28;20095;-74
2022/06/04 00:42:56;;;;;;;5.30;4.80;;;16.10;63.30;;;;;;5073204;28;20024;-75
2022/06/04 00:45:21;;;;;;;4.63;4.22;;;16.10;63.40;;;;;;5073317;28;20028;-72
2022/06/04 00:47:50;;;;;;;4.15;3.75;;;16.10;64.10;;;;;;5072075;28;20023;-74
2022/06/04 00:50:19;;;;;;;5.43;4.07;;;16.10;64.00;;;;;;5073268;28;20047;-75
2022/06/04 00:52:47;;;;;;;5.80;4.28;;;16.10;64.40;;;;;;5073123;28;20098;-75
2022/06/04 00:55:14;;;;;;;4.60;4.20;;;16.10;64.30;;;;;;5073167;28;20089;-74
2022/06/04 00:57:57;;;;;;;4.60;4.20;;;16.00;64.00;;;;;;5072769;28;20386;-71
2022/06/04 01:00:35;;;;;;;5.15;4.53;;;16.10;64.70;;;;;;5073082;28;20044;-71
2022/06/04 01:03:06;;;;;;;4.55;3.92;;;16.00;65.30;;;;;;5073053;28;20032;-74
2022/06/04 01:06:27;;;;;;;5.28;4.65;;;16.00;65.30;;;;;;5073002;28;20072;-74
2022/06/04 01:09:18;;;;;;;6.00;4.60;;;16.10;66.10;;;;;;4972275;28;20489;-73
2022/06/04 01:12:10;;;;;;;7.82;4.95;;;16.00;66.70;;;;;;5084747;28;20041;-74
2022/06/04 01:14:45;;;;;;;6.13;4.78;;;16.00;66.80;;;;;;5071694;28;20074;-71
2022/06/04 01:17:17;;;;;;;5.75;4.93;;;15.90;66.70;;;;;;5072691;28;20021;-73
2022/06/04 01:20:02;;;;;;;4.90;4.35;;;16.00;67.10;;;;;;5053103;28;20104;-71
2022/06/04 01:22:30;;;;;;;6.28;4.85;;;16.00;67.20;;;;;;5051584;28;20053;-71
2022/06/04 01:25:15;;;;;;;5.32;4.85;;;15.90;67.40;;;;;;5063593;28;20490;-71
2022/06/04 01:27:45;;;;;;;5.38;4.88;;;16.00;67.40;;;;;;5072946;28;20021;-71
2022/06/04 01:30:20;;;;;;;6.20;4.78;;;16.00;67.50;;;;;;5072846;28;20035;-74
2022/06/04 01:32:56;;;;;;;5.22;4.72;;;16.00;67.60;;;;;;5073017;28;20107;-71
2022/06/04 01:35:47;;;;;;;5.78;4.60;;;16.00;68.20;;;;;;5071534;28;20027;-73
2022/06/04 01:38:22;;;;;;;7.40;4.90;;;15.90;68.70;;;;;;5071520;28;20028;-74
2022/06/04 01:41:07;;;;;;;6.10;5.50;;;15.90;68.90;;;;;;5072751;28;20390;-73
2022/06/04 01:43:32;;;;;;;5.90;5.38;;;15.90;69.30;;;;;;5072710;28;20032;-72
2022/06/04 01:46:03;;;;;;;5.90;5.30;;;15.90;69.10;;;;;;5071376;28;20020;-71
2022/06/04 01:48:32;;;;;;;14.32;5.30;;;15.80;69.80;;;;;;5072644;28;20013;-73
2022/06/04 01:51:03;;;;;;;10.32;5.47;;;15.80;70.20;;;;;;5072503;28;20119;-71
2022/06/04 01:53:34;;;;;;;9.27;5.65;;;15.80;71.00;;;;;;5072642;28;20027;-73
2022/06/04 01:56:05;;;;;;;5.97;5.47;;;15.70;72.00;;;;;;5071451;28;20025;-71
2022/06/04 01:58:43;;;;;;;5.78;5.35;;;15.70;72.10;;;;;;5072650;28;20059;-73
2022/06/04 02:01:14;;;;;;;8.18;5.50;;;15.70;72.00;;;;;;5072576;28;20028;-73
2022/06/04 02:03:43;;;;;;;5.93;4.97;;;15.60;72.50;;;;;;5071506;28;20035;-73
2022/06/04 02:06:17;;;;;;;5.82;5.38;;;15.60;72.60;;;;;;5072597;28;20044;-73
2022/06/04 02:09:11;;;;;;;5.95;5.45;;;15.60;72.80;;;;;;5071884;28;20028;-71
2022/06/04 02:11:39;;;;;;;6.13;5.53;;;15.60;73.10;;;;;;5074934;28;20471;-73
2022/06/04 02:14:07;;;;;;;6.25;5.63;;;15.60;73.90;;;;;;5076053;28;20107;-71
2022/06/04 02:16:46;;;;;;;7.18;5.90;;;15.60;74.00;;;;;;5076192;28;20032;-71
2022/06/04 02:19:12;;;;;;;5.93;5.35;;;15.60;74.30;;;;;;5058726;28;20494;-73
2022/06/04 02:21:38;;;;;;;11.05;5.30;;;15.60;75.30;;;;;;5056084;28;20052;-71
2022/06/04 02:24:05;;;;;;;6.30;5.60;;;15.60;75.20;;;;;;5061209;28;20025;-71
2022/06/04 02:26:32;;;;;;;6.47;5.88;;;15.60;74.80;;;;;;5075820;28;20035;-74
2022/06/04 02:28:59;;;;;;;7.93;6.30;;;15.70;75.50;;;;;;5075743;28;20082;-74
2022/06/04 02:31:35;;;;;;;6.85;6.07;;;15.70;74.70;;;;;;5057894;28;20090;-73
2022/06/04 02:34:06;;;;;;;7.78;5.90;;;15.70;76.30;;;;;;5075962;28;20056;-73
2022/06/04 02:36:40;;;;;;;7.20;6.53;;;15.70;76.10;;;;;;5075760;28;20028;-71
2022/06/04 02:39:29;;;;;;;7.65;5.80;;;15.70;75.60;;;;;;5075691;28;20016;-71
2022/06/04 02:41:54;;;;;;;9.30;7.10;;;15.80;75.60;;;;;;5074503;28;20032;-73
2022/06/04 02:44:26;;;;;;;9.88;5.78;;;15.80;76.90;;;;;;5075547;28;20451;-72
2022/06/04 02:47:19;;;;;;;6.38;5.82;;;15.80;76.60;;;;;;5075525;28;20095;-73
2022/06/04 02:49:48;;;;;;;9.43;5.95;;;15.80;78.20;;;;;;5075662;28;20025;-71
2022/06/04 02:52:16;;;;;;;6.43;5.82;;;15.80;78.80;;;;;;5075491;28;20028;-71
2022/06/04 02:54:56;;;;;;;6.82;6.22;;;15.80;77.90;;;;;;5075269;28;20052;-73
2022/06/04 02:57:24;;;;;;;9.82;6.65;;;15.80;76.80;;;;;;5074196;28;20029;-73
2022/06/04 02:59:52;;;;;;;7.13;6.20;;;15.80;78.60;;;;;;5075305;28;20031;-71
2022/06/04 03:02:19;;;;;;;6.65;6.07;;;15.80;76.90;;;;;;5074214;28;20397;-74
2022/06/04 03:04:51;;;;;;;6.78;6.07;;;15.80;78.30;;;;;;5073605;28;20494;-73
2022/06/04 03:07:19;;;;;;;10.70;6.70;;;15.80;77.70;;;;;;5075363;28;20545;-74
2022/06/04 03:09:48;;;;;;;6.45;5.85;;;15.80;78.30;;;;;;5073889;28;20021;-72
2022/06/04 03:12:13;;;;;;;10.75;6.00;;;15.90;77.20;;;;;;5075247;28;20024;-74
2022/06/04 03:14:39;;;;;;;10.15;7.03;;;15.90;79.10;;;;;;5073649;28;20021;-74
2022/06/04 03:17:10;;;;;;;11.32;7.28;;;15.80;84.90;;;;;;5074902;28;20020;-73
2022/06/04 03:19:37;;;;;;;8.52;7.63;;;15.70;92.10;;;;;;5054572;28;20056;-73
2022/06/04 03:22:03;;;;;;;7.72;6.85;;;15.60;94.30;;;;;;5053705;28;20017;-71
2022/06/04 03:24:28;;;;;;;7.97;7.03;;;15.50;94.00;;;;;;5063789;28;20470;-71
2022/06/04 03:26:54;;;;;;;9.90;7.20;;;15.40;97.40;;;;;;5073558;28;20032;-73
2022/06/04 03:29:20;;;;;;;9.38;7.60;;;15.40;99.70;;;;;;5074840;28;20089;-71
2022/06/04 03:31:46;;;;;;;8.85;7.93;;;15.40;99.90;;;;;;5074650;28;20521;-71
2022/06/04 03:34:12;;;;;;;9.52;7.88;;;15.40;99.90;;;;;;5074611;28;20017;-71
2022/06/04 03:36:39;;;;;;;10.00;7.57;;;15.40;99.90;;;;;;5074567;28;20025;-74
2022/06/04 03:39:06;;;;;;;10.75;8.60;;;15.40;99.90;;;;;;5074634;28;20525;-71
2022/06/04 03:41:32;;;;;;;9.10;8.20;;;15.50;99.90;;;;;;5074555;28;20390;-71
2022/06/04 03:43:58;;;;;;;8.38;7.68;;;15.50;99.90;;;;;;5074419;28;20024;-73
2022/06/04 03:46:26;;;;;;;9.50;8.60;;;15.40;99.90;;;;;;5074544;28;20032;-71
2022/06/04 03:48:53;;;;;;;9.98;8.35;;;15.40;99.90;;;;;;5073151;28;20103;-73
2022/06/04 03:51:19;;;;;;;11.00;8.55;;;15.40;99.90;;;;;;5074361;28;20111;-71
2022/06/04 03:53:45;;;;;;;9.25;8.35;;;15.40;99.90;;;;;;5073040;28;20016;-74
2022/06/04 03:56:11;;;;;;;9.52;8.45;;;15.40;99.90;;;;;;5074352;28;20031;-71
2022/06/04 03:58:36;;;;;;;9.25;8.35;;;15.40;99.90;;;;;;5073040;28;20048;-73
2022/06/04 04:01:16;;;;;;;10.15;9.25;;;15.40;99.90;;;;;;5073954;28;20029;-73
2022/06/04 04:03:42;;;;;;;9.95;8.30;;;15.50;99.90;;;;;;5072819;28;20024;-73
2022/06/04 04:06:13;;;;;;;9.55;8.63;;;15.60;99.90;;;;;;5074059;28;20048;-71
2022/06/04 04:08:39;;;;;;;10.38;8.77;;;15.70;99.90;;;;;;5074073;28;20028;-73
2022/06/04 04:11:09;;;;;;;11.10;8.15;;;15.70;99.90;;;;;;5072543;28;20048;-73
2022/06/04 04:13:34;;;;;;;9.15;8.25;;;15.80;99.90;;;;;;5073836;28;20035;-73
2022/06/04 04:16:01;;;;;;;9.15;8.20;;;15.70;99.90;;;;;;5073721;28;20055;-71
2022/06/04 04:18:26;;;;;;;10.38;8.38;;;15.70;99.90;;;;;;5060796;28;20017;-74
2022/06/04 04:20:52;;;;;;;9.10;7.50;;;15.70;99.90;;;;;;5053693;28;20473;-74
2022/06/04 04:23:18;;;;;;;8.30;7.57;;;15.70;99.90;;;;;;5053665;28;20025;-71
2022/06/04 04:25:43;;;;;;;12.07;8.73;;;15.70;99.90;;;;;;5072051;28;20027;-73
2022/06/04 04:28:09;;;;;;;9.43;8.52;;;15.80;99.90;;;;;;5073807;28;20500;-73
2022/06/04 04:30:36;;;;;;;11.45;9.00;;;15.70;99.90;;;;;;5072055;28;20036;-74
2022/06/04 04:33:04;;;;;;;10.75;9.57;;;15.70;99.90;;;;;;5072943;28;20025;-71
2022/06/04 04:35:33;;;;;;;8.63;7.93;;;15.60;99.90;;;;;;5072103;28;20020;-74
2022/06/04 04:38:00;;;;;;;12.13;8.93;;;15.50;99.90;;;;;;5073810;28;20017;-73
2022/06/04 04:40:28;;;;;;;9.43;8.50;;;15.50;99.90;;;;;;5073314;28;20077;-74
2022/06/04 04:42:54;;;;;;;12.15;9.23;;;15.50;99.90;;;;;;5072003;28;20402;-73
2022/06/04 04:45:22;;;;;;;10.98;9.13;;;15.50;99.90;;;;;;5073249;28;20016;-71
2022/06/04 04:47:49;;;;;;;10.57;8.68;;;15.50;99.90;;;;;;5072069;28;20017;-73
2022/06/04 04:50:21;;;;;;;9.23;8.20;;;15.50;99.90;;;;;;5073239;28;20094;-73
2022/06/04 04:52:48;;;;;;;8.20;7.50;;;15.50;99.90;;;;;;5073277;28;20051;-73
2022/06/04 04:55:14;;;;;;;10.05;8.75;;;15.50;99.90;;;;;;5071457;28;20078;-73
2022/06/04 04:57:40;;;;;;;10.05;8.60;;;15.60;99.90;;;;;;5073275;28;20032;-71
2022/06/04 05:00:07;;;;;;;9.30;8.50;;;15.70;99.90;;;;;;5071685;28;20029;-73
2022/06/04 05:02:34;;;;;;;9.45;8.55;;;15.70;99.90;;;;;;5073089;28;20024;-72
2022/06/04 05:04:59;;;;;;;10.75;9.52;;;15.60;99.90;;;;;;5071602;28;20463;-73
2022/06/04 05:07:25;;;;;;;9.48;8.60;;;15.60;99.90;;;;;;5073163;28;20040;-71
2022/06/04 05:09:51;;;;;;;9.85;8.90;;;15.60;99.90;;;;;;5072972;28;20386;-71
2022/06/04 05:12:17;;;;;;;8.95;8.05;;;15.60;99.90;;;;;;5073133;28;20024;-72
2022/06/04 05:14:43;;;;;;;9.55;8.55;;;15.60;99.90;;;;;;5072865;28;20024;-73
2022/06/04 05:17:08;;;;;;;11.13;9.05;;;15.60;99.90;;;;;;5071570;28;20024;-74
2022/06/04 05:19:34;;;;;;;10.27;9.13;;;15.60;99.90;;;;;;5052954;28;20037;-71
2022/06/04 05:22:00;;;;;;;9.85;8.88;;;15.60;99.90;;;;;;5051605;28;20024;-73
2022/06/04 05:24:29;;;;;;;10.43;8.80;;;15.60;99.90;;;;;;5056199;28;20031;-71
2022/06/04 05:26:55;;;;;;;10.25;9.23;;;15.50;99.90;;;;;;5072817;28;20032;-71
2022/06/04 05:29:22;;;;;;;9.98;8.98;;;15.50;99.90;;;;;;5072966;28;20031;-74
2022/06/04 05:31:49;;;;;;;13.48;9.32;;;15.40;99.90;;;;;;5072670;28;20029;-71
2022/06/04 05:34:17;;;;;;;14.48;10.32;;;15.40;99.90;;;;;;5071542;28;20053;-71
2022/06/04 05:36:43;;;;;;;9.68;8.75;;;15.40;99.90;;;;;;5069494;28;20024;-74
2022/06/04 05:39:09;;;;;;;12.43;10.02;;;15.40;99.90;;;;;;5052765;28;20367;-74
2022/06/04 05:41:36;;;;;;;10.98;9.88;;;15.40;99.90;;;;;;5054060;28;20025;-73
2022/06/04 05:44:02;;;;;;;12.20;11.00;;;15.50;99.90;;;;;;5065348;28;20087;-73
2022/06/04 05:46:28;;;;;;;12.30;11.00;;;15.50;99.90;;;;;;5065952;28;20025;-73
2022/06/04 05:48:54;;;;;;;11.68;10.48;;;15.60;99.90;;;;;;5064521;28;20025;-74
2022/06/04 05:51:23;;;;;;;13.48;11.00;;;15.60;99.90;;;;;;5056479;28;20043;-71
2022/06/04 05:53:49;;;;;;;11.23;10.18;;;15.60;99.90;;;;;;5063493;28;20074;-73
2022/06/04 05:56:36;;;;;;;11.48;10.27;;;15.60;99.90;;;;;;5056342;28;20025;-73
2022/06/04 05:59:04;;;;;;;12.23;11.02;;;15.60;99.90;;;;;;5056565;28;20021;-74
2022/06/04 06:01:32;;;;;;;13.88;12.40;;;15.60;99.90;;;;;;5056315;28;20371;-71
2022/06/04 06:03:59;;;;;;;11.93;10.45;;;15.60;99.90;;;;;;5056196;28;20029;-71
2022/06/04 06:06:27;;;;;;;12.68;11.38;;;15.50;99.90;;;;;;5055031;28;20082;-70
2022/06/04 06:08:55;;;;;;;11.85;10.70;;;15.50;99.90;;;;;;5055073;28;20079;-70
2022/06/04 06:11:22;;;;;;;14.20;12.02;;;15.60;99.90;;;;;;5060709;28;20111;-72
2022/06/04 06:13:48;;;;;;;14.43;11.52;;;15.60;99.90;;;;;;5055640;28;20484;-70
2022/06/04 06:16:17;;;;;;;14.13;12.65;;;15.50;99.90;;;;;;5060518;28;20025;-72
2022/06/04 06:18:43;;;;;;;14.07;12.38;;;15.50;99.90;;;;;;5068436;28;20029;-70
2022/06/04 06:21:18;;;;;;;13.20;11.88;;;15.50;99.90;;;;;;5069833;28;20039;-73
2022/06/04 06:23:43;;;;;;;13.30;11.90;;;15.50;99.90;;;;;;5066146;28;20034;-70
2022/06/04 06:26:13;;;;;;;14.07;12.60;;;15.50;99.90;;;;;;5059527;28;20025;-71
2022/06/04 06:28:40;;;;;;;20.15;14.43;;;15.60;99.90;;;;;;5068890;28;20033;-70
2022/06/04 06:31:08;;;;;;;21.10;15.35;;;15.70;99.90;;;;;;5066118;28;20040;-72
2022/06/04 06:33:34;;;;;;;18.70;14.90;;;15.70;99.90;;;;;;5067552;28;20047;-71
2022/06/04 06:36:06;;;;;;;18.95;14.90;;;15.80;99.90;;;;;;5055307;28;20033;-71
2022/06/04 06:38:33;;;;;;;17.42;15.60;;;15.90;99.90;;;;;;5065060;28;20079;-71
2022/06/04 06:40:59;;;;;;;23.45;18.00;;;16.00;99.90;;;;;;5068523;28;20020;-71
2022/06/04 06:43:37;;;;;;;19.13;16.35;;;16.10;99.90;;;;;;5074415;28;20017;-71
2022/06/04 06:46:12;;;;;;;20.30;15.45;;;16.20;99.90;;;;;;5074224;28;20111;-71
2022/06/04 06:48:40;;;;;;;17.55;13.65;;;16.20;99.90;;;;;;5075588;28;20033;-72
2022/06/04 06:51:17;;;;;;;14.90;12.40;;;16.30;99.90;;;;;;5074941;28;20040;-70
2022/06/04 06:53:43;;;;;;;15.25;13.65;;;16.30;99.90;;;;;;5063458;28;20101;-70
2022/06/04 06:56:15;;;;;;;15.23;12.65;;;16.40;99.90;;;;;;5063829;28;20071;-70
2022/06/04 06:58:41;;;;;;;17.15;14.73;;;16.40;99.90;;;;;;5070046;28;20019;-70
2022/06/04 07:01:07;;;;;;;16.63;14.90;;;16.50;99.90;;;;;;5074088;28;20035;-72
2022/06/04 07:03:35;;;;;;;18.40;13.82;;;16.60;99.90;;;;;;5072235;28;20445;-72
2022/06/04 07:06:01;;;;;;;15.82;14.15;;;16.70;99.90;;;;;;5073459;28;20052;-73
2022/06/04 07:08:27;;;;;;;15.07;13.38;;;16.90;99.90;;;;;;5073314;28;20028;-70
2022/06/04 07:10:53;;;;;;;12.73;9.55;;;17.00;99.90;;;;;;5066714;28;20101;-72
2022/06/04 07:13:19;;;;;;;14.60;10.60;;;17.00;99.90;;;;;;5073094;28;20027;-70
2022/06/04 07:15:44;;;;;;;12.65;10.95;;;17.20;99.90;;;;;;5073240;28;20408;-73
2022/06/04 07:18:12;;;;;;;12.68;10.98;;;17.30;99.90;;;;;;5062532;28;20025;-71
2022/06/04 07:20:38;;;;;;;13.65;10.50;;;17.40;99.90;;;;;;5053637;28;20021;-72
2022/06/04 07:23:04;;;;;;;16.63;11.02;;;17.50;99.90;;;;;;5058033;28;20446;-73
2022/06/04 07:25:30;;;;;;;16.95;12.18;;;17.70;99.90;;;;;;5073919;28;20059;-72
2022/06/04 07:27:56;;;;;;;14.50;11.02;;;17.80;99.90;;;;;;5071170;28;20021;-74
2022/06/04 07:30:22;;;;;;;16.67;11.55;;;18.00;99.90;;;;;;5065343;28;20056;-74
2022/06/04 07:32:47;;;;;;;12.63;10.43;;;18.00;99.90;;;;;;5055456;28;20029;-73
2022/06/04 07:35:13;;;;;;;12.30;10.50;;;17.90;99.90;;;;;;5053277;28;20047;-74
2022/06/04 07:37:38;;;;;;;16.65;11.27;;;17.90;99.90;;;;;;5072406;28;20047;-70
2022/06/04 07:40:05;;;;;;;13.07;11.63;;;18.00;99.90;;;;;;5071830;28;20047;-74
2022/06/04 07:42:31;;;;;;;16.52;13.25;;;18.10;99.90;;;;;;5053735;28;20497;-74
2022/06/04 07:44:57;;;;;;;17.02;12.48;;;18.00;99.90;;;;;;5056604;28;20115;-73
2022/06/04 07:47:24;;;;;;;14.32;12.07;;;17.90;99.90;;;;;;5053674;28;20104;-74
2022/06/04 07:49:49;;;;;;;16.02;12.52;;;17.90;99.90;;;;;;5052097;28;20037;-69
2022/06/04 07:52:15;;;;;;;16.80;13.90;;;17.80;99.90;;;;;;5057983;28;20036;-70
2022/06/04 07:54:41;;;;;;;17.02;14.18;;;17.70;99.90;;;;;;5071099;28;20078;-69
2022/06/04 07:57:07;;;;;;;17.33;14.77;;;17.80;99.90;;;;;;5053471;28;20086;-70
2022/06/04 07:59:32;;;;;;;20.42;15.50;;;17.90;99.90;;;;;;5066271;28;20390;-70
2022/06/04 08:01:58;;;;;;;19.33;15.95;;;17.70;99.90;;;;;;5060025;28;20039;-70
2022/06/04 08:04:24;;;;;;;17.65;12.95;;;17.50;99.90;;;;;;5059187;28;20037;-70
2022/06/04 08:06:49;;;;;;;16.70;15.00;;;17.30;99.90;;;;;;5050931;28;20084;-70
2022/06/04 08:09:15;;;;;;;23.73;16.95;;;17.20;99.90;;;;;;5052508;28;20466;-70
2022/06/04 08:11:41;;;;;;;19.50;17.15;;;17.10;99.90;;;;;;5071578;28;20032;-70
2022/06/04 08:14:10;;;;;;;19.27;15.25;;;17.10;99.90;;;;;;5059503;28;20099;-70
2022/06/04 08:16:42;;;;;;;19.90;16.00;;;16.90;99.90;;;;;;5052696;28;20048;-70
2022/06/04 08:19:08;;;;;;;;;;;16.80;99.90;;;;;;5069362;28;20381;-70
2022/06/04 08:21:35;;;;;;;15.85;14.23;;;16.80;99.90;;;;;;5052988;28;20008;-70
2022/06/04 08:24:01;;;;;;;15.85;12.65;;;16.60;99.90;;;;;;5066621;28;20482;-70
2022/06/04 08:26:27;;;;;;;15.02;13.07;;;16.40;99.90;;;;;;5053745;28;20036;-69
2022/06/04 08:28:53;;;;;;;15.80;14.05;;;16.40;99.90;;;;;;5052901;28;20506;-71
2022/06/04 08:31:19;;;;;;;18.48;14.85;;;16.50;99.90;;;;;;5053199;28;20049;-70
2022/06/04 08:33:45;;;;;;;14.55;12.93;;;16.60;99.90;;;;;;5060146;28;20067;-70
2022/06/04 08:36:14;;;;;;;15.77;12.55;;;16.60;99.90;;;;;;5054613;28;20025;-70
2022/06/04 08:38:40;;;;;;;18.23;12.65;;;16.80;99.90;;;;;;5052178;28;20017;-73
2022/06/04 08:41:17;;;;;;;14.45;13.05;;;16.80;99.90;;;;;;5063249;28;20148;-73
2022/06/04 08:43:54;;;;;;;13.50;12.00;;;16.90;99.90;;;;;;5052727;28;20029;-73
2022/06/04 08:46:35;;;;;;;15.10;12.20;;;17.00;99.90;;;;;;5052041;28;20029;-73
2022/06/04 08:49:11;;;;;;;13.38;12.07;;;17.10;99.90;;;;;;5052457;28;20096;-73
2022/06/04 08:51:37;;;;;;;12.32;11.10;;;17.10;99.90;;;;;;5053094;28;20033;-73
2022/06/04 08:57:32;;;;;;;12.13;10.88;;;17.10;99.90;;;;;;5064823;28;20483;-73
2022/06/04 08:59:46;;;;;;;12.57;11.27;;;17.30;99.90;;;;;;5052447;28;20512;-74
2022/06/04 09:02:21;;;;;;;12.65;11.27;;;17.20;99.90;;;;;;5050791;28;20124;-72
2022/06/04 09:05:15;;;;;;;13.90;11.35;;;17.30;99.90;;;;;;5051847;28;20128;-75
2022/06/04 09:07:45;;;;;;;13.93;11.05;;;17.30;99.90;;;;;;5056602;28;20021;-73
2022/06/04 09:10:15;;;;;;;13.95;11.88;;;17.10;99.90;;;;;;5051520;28;20039;-73
2022/06/04 09:12:46;;;;;;;13.98;11.60;;;17.10;99.90;;;;;;5050579;28;20029;-75
2022/06/04 09:15:37;;;;;;;14.25;10.98;;;17.10;99.90;;;;;;5052400;28;20017;-70
2022/06/04 09:18:15;;;;;;;14.43;12.50;;;17.10;99.90;;;;;;5058321;28;20524;-71
2022/06/04 09:20:47;;;;;;;14.30;12.20;;;17.10;99.90;;;;;;5055585;28;20444;-74
2022/06/04 09:23:22;;;;;;;13.88;12.35;;;17.10;99.90;;;;;;5057900;28;20035;-70
2022/06/04 09:26:03;;;;;;;16.52;12.85;;;17.10;99.90;;;;;;5055125;28;20045;-70
2022/06/04 09:28:38;;;;;;;16.75;12.63;;;17.20;99.90;;;;;;5052668;28;20472;-70
2022/06/04 09:31:32;;;;;;;12.18;11.02;;;17.20;99.90;;;;;;5059554;28;20044;-71
2022/06/04 09:34:01;;;;;;;11.80;10.50;;;17.20;99.90;;;;;;5060886;28;20057;-71
2022/06/04 09:36:33;;;;;;;12.93;11.27;;;17.20;99.90;;;;;;5055595;28;20041;-70
2022/06/04 09:39:19;;;;;;;13.77;12.02;;;17.30;99.90;;;;;;5056156;28;20017;-70
2022/06/04 09:41:54;;;;;;;12.68;10.85;;;17.30;99.90;;;;;;5042427;28;20090;-70
2022/06/04 09:44:21;;;;;;;13.82;12.43;;;17.50;99.90;;;;;;5054978;28;20023;-70
2022/06/04 09:46:51;;;;;;;13.52;12.13;;;17.60;99.90;;;;;;5061825;28;20102;-70
2022/06/04 09:49:38;;;;;;;15.25;11.07;;;17.70;99.90;;;;;;5064745;28;20496;-70
2022/06/04 09:52:27;;;;;;;13.23;11.55;;;17.80;99.90;;;;;;5051095;28;20052;-70
2022/06/04 09:54:58;;;;;;;13.00;10.70;;;18.10;99.90;;;;;;5051292;28;20106;-70
2022/06/04 09:57:30;;;;;;;11.70;10.48;;;18.30;99.90;;;;;;5051003;28;20030;-70
2022/06/04 09:59:58;;;;;;;13.30;10.43;;;18.50;99.90;;;;;;5059976;28;20104;-73
2022/06/04 10:02:24;;;;;;;13.95;10.75;;;18.70;99.90;;;;;;5053420;28;20463;-70
2022/06/04 10:05:04;;;;;;;12.50;11.23;;;18.80;99.90;;;;;;5057599;28;20076;-70
2022/06/04 10:07:33;;;;;;;12.80;10.38;;;18.80;99.90;;;;;;5058779;28;20544;-70
2022/06/04 10:10:08;;;;;;;14.15;11.77;;;18.80;99.90;;;;;;5050040;28;20175;-71
2022/06/04 10:15:48;;;;;;;12.00;10.32;;;19.00;99.90;;;;;;5051186;28;20408;-70
2022/06/04 10:18:22;;;;;;;13.57;10.73;;;19.00;99.90;;;;;;5061832;28;20059;-73
2022/06/04 10:21:05;;;;;;;13.18;11.20;;;19.10;99.90;;;;;;5051485;28;20025;-73
2022/06/04 10:23:41;;;;;;;11.63;10.45;;;19.10;99.90;;;;;;5051497;28;20032;-74
2022/06/04 10:26:16;;;;;;;12.55;10.38;;;19.30;99.90;;;;;;5062232;28;20105;-70
2022/06/04 10:29:13;;;;;;;10.75;9.75;;;19.50;99.90;;;;;;5050235;28;20017;-77
2022/06/04 10:32:13;;;;;;;11.40;9.50;;;19.70;99.90;;;;;;5066719;28;20051;-77
2022/06/04 10:34:47;;;;;;;9.57;8.32;;;19.90;99.90;;;;;;5054789;28;20100;-77
2022/06/04 10:37:42;;;;;;;9.95;9.05;;;19.90;99.90;;;;;;5059241;28;20371;-77
2022/06/04 10:40:42;;;;;;;9.70;8.55;;;20.10;99.90;;;;;;5039258;28;20044;-76
2022/06/04 10:43:44;;;;;;;8.80;7.88;;;20.20;99.90;;;;;;5054599;28;20029;-76
2022/06/04 10:46:34;;;;;;;9.45;8.57;;;20.30;99.90;;;;;;5054716;28;20070;-76
2022/06/04 10:49:24;;;;;;;8.15;7.43;;;20.20;99.90;;;;;;5065512;28;20029;-76
2022/06/04 10:51:59;;;;;;;9.88;8.27;;;20.30;99.90;;;;;;5053741;28;20037;-74
2022/06/04 10:54:33;;;;;;;9.73;8.00;;;20.30;99.90;;;;;;5060083;28;20025;-73
2022/06/04 10:57:15;;;;;;;9.23;8.27;;;20.20;99.90;;;;;;5053294;28;20048;-73
2022/06/04 10:59:55;;;;;;;8.45;7.65;;;20.00;99.90;;;;;;5053364;28;20544;-77
2022/06/04 11:02:48;;;;;;;8.38;7.47;;;20.00;99.90;;;;;;5053782;28;20122;-77
2022/06/04 11:05:20;;;;;;;8.57;7.72;;;20.00;99.90;;;;;;5052878;28;20637;-77
2022/06/04 11:08:05;;;;;;;7.18;6.57;;;20.00;99.90;;;;;;5052449;28;20033;-77
2022/06/04 11:10:58;;;;;;;7.50;6.80;;;19.90;99.90;;;;;;5054064;28;20124;-76
2022/06/04 11:13:34;;;;;;;7.50;6.80;;;19.90;99.90;;;;;;5054165;28;20108;-77
2022/06/04 11:16:10;;;;;;;8.35;7.63;;;19.90;99.90;;;;;;5059176;28;20028;-74
2022/06/04 11:18:42;;;;;;;7.80;7.10;;;19.90;99.90;;;;;;5066277;28;20367;-74
2022/06/04 11:21:21;;;;;;;7.60;6.80;;;19.80;99.90;;;;;;5072126;28;20024;-74
2022/06/04 11:23:59;;;;;;;7.65;6.95;;;19.90;99.90;;;;;;5062459;28;20031;-74
2022/06/04 11:26:40;;;;;;;6.95;6.40;;;19.80;99.90;;;;;;5081174;28;20102;-76
2022/06/04 11:29:08;;;;;;;8.38;7.68;;;19.90;99.90;;;;;;5067261;28;20032;-77
2022/06/04 11:31:34;;;;;;;7.85;7.07;;;19.90;99.90;;;;;;5052357;28;20047;-74
2022/06/04 11:34:38;;;;;;;8.57;7.78;;;19.90;99.90;;;;;;5053949;28;20112;-76
2022/06/04 11:37:36;;;;;;;9.02;7.68;;;19.80;99.90;;;;;;5058645;28;20131;-74
2022/06/04 11:40:16;;;;;;;6.93;6.22;;;19.70;99.90;;;;;;5053965;28;20032;-77
2022/06/04 11:42:56;;;;;;;10.10;7.57;;;19.50;99.90;;;;;;5063945;28;20478;-78
2022/06/04 11:45:32;;;;;;;7.72;6.95;;;19.30;99.90;;;;;;5072239;28;20024;-74
2022/06/04 11:48:03;;;;;;;8.63;7.38;;;19.40;99.90;;;;;;5059080;28;20037;-74
2022/06/04 11:50:44;;;;;;;7.70;7.00;;;19.20;99.90;;;;;;5064204;28;20047;-79
2022/06/04 11:53:38;;;;;;;8.85;8.07;;;19.20;99.90;;;;;;5052237;28;20044;-75
2022/06/04 11:56:15;;;;;;;10.48;8.23;;;19.20;99.90;;;;;;5053340;28;20025;-74
2022/06/04 11:58:58;;;;;;;9.52;8.60;;;19.30;99.90;;;;;;5053595;28;20036;-75
2022/06/04 12:01:37;;;;;;;;;;;19.40;99.90;;;;;;5053486;28;20029;-74
2022/06/04 12:04:41;;;;;;;11.43;8.50;;;19.40;99.90;;;;;;5060385;28;19908;-74
2022/06/04 12:07:18;;;;;;;10.57;9.30;;;19.30;99.90;;;;;;5065619;28;20414;-75
2022/06/04 12:10:20;;;;;;;10.00;9.02;;;19.20;99.90;;;;;;5053482;28;20017;-75
2022/06/04 12:13:21;;;;;;;9.33;8.53;;;19.10;99.90;;;;;;5051781;28;20407;-75
2022/06/04 12:16:08;;;;;;;10.60;8.02;;;19.00;99.90;;;;;;5053240;28;20041;-78
2022/06/04 12:18:41;;;;;;;9.52;8.52;;;18.80;99.90;;;;;;5055658;28;20114;-79
2022/06/04 12:24:30;;;;;;;9.65;8.65;;;18.70;99.90;;;;;;5059056;28;20044;-79
2022/06/04 12:27:19;;;;;;;8.15;7.18;;;18.60;99.90;;;;;;5055288;28;20032;-80
2022/06/04 12:29:51;;;;;;;8.55;7.43;;;18.50;99.90;;;;;;5052857;28;20037;-80
2022/06/04 12:32:25;;;;;;;8.75;7.95;;;18.40;99.90;;;;;;5052593;28;20025;-79
2022/06/04 12:35:09;;;;;;;8.65;7.80;;;18.40;99.90;;;;;;5052686;28;20044;-80
2022/06/04 12:37:41;;;;;;;13.43;9.35;;;18.30;99.90;;;;;;5058753;28;20071;-81
2022/06/04 12:40:24;;;;;;;9.35;8.45;;;18.30;99.90;;;;;;5056289;28;20025;-79
2022/06/04 12:43:30;;;;;;;10.48;9.38;;;18.20;99.90;;;;;;5052362;28;20024;-80
2022/06/04 12:46:07;;;;;;;10.32;9.32;;;18.00;99.90;;;;;;5022370;28;20033;-80
2022/06/04 12:48:33;;;;;;;12.40;11.27;;;18.00;99.90;;;;;;5055389;28;20497;-79
2022/06/04 12:51:10;;;;;;;11.77;10.68;;;18.10;99.90;;;;;;5059125;28;20033;-83
2022/06/04 12:54:00;;;;;;;12.52;11.32;;;18.20;99.90;;;;;;5050303;28;20033;-78
2022/06/04 12:56:32;;;;;;;11.98;10.88;;;18.10;99.90;;;;;;5052105;28;20466;-79
2022/06/04 12:59:01;;;;;;;13.07;11.82;;;18.10;99.90;;;;;;5055392;28;20048;-79
2022/06/04 13:01:30;;;;;;;13.57;10.75;;;18.10;99.90;;;;;;5055652;28;20109;-81
2022/06/04 13:04:10;;;;;;;14.35;10.40;;;18.00;99.90;;;;;;5052135;28;20514;-78
2022/06/04 13:06:58;;;;;;;13.30;12.05;;;17.90;99.90;;;;;;5051624;28;20040;-79
2022/06/04 13:09:23;;;;;;;12.35;11.15;;;17.90;99.90;;;;;;5064391;28;20091;-78
2022/06/04 13:12:07;;;;;;;12.48;11.20;;;17.90;99.90;;;;;;5061756;28;20513;-78
2022/06/04 13:14:40;;;;;;;13.57;12.27;;;18.00;99.90;;;;;;5053480;28;20043;-80
2022/06/04 13:17:42;;;;;;;12.35;10.95;;;18.00;99.90;;;;;;5059249;28;20017;-80
2022/06/04 13:20:30;;;;;;;12.57;11.38;;;18.00;99.90;;;;;;5051975;28;20115;-78